Terminal Aerodrome Forecast
Issued by NWS

Home | Current Version | Previous Version | Text Only | Print | Product List | Glossary On
Versions: 1 2 3 4 5 6 7 8 9 10 11 12 13 14 15 16 17 18 19 20 21 22
885
FTUS43 KPAH 191209 CCA
TAFCGI
TAF COR
KCGI 191209Z 1912/2012 08006KT 2SM -SHRA BR SCT002 OVC005
     FM191400 10006KT 4SM BR VCSH OVC007
     FM191900 15006KT 3SM HZ VCSH OVC009
     FM200000 20004KT 2SM BR OVC005
     FM200500 21005KT 4SM BR BKN010 OVC015=

USA.gov is the U.S. government's official web portal to all federal, state and local government web resources and services.